Time;durP1;ratioP1;P1;durP2;ratioP2;P2;SDS_P1;SDS_P2;PMS_P1;PMS_P2;Temp;Humidity;BMP_temperature;BMP_pressure;BME280_temperature;BME280_humidity;BME280_pressure;Samples;Min_cycle;Max_cycle;Signal;HPM_P1;HPM_P2
2022/03/24 00:01:40;;;;;;;35.83;18.00;;;;;;;;;;4939625;29;20606;-62
2022/03/24 00:04:06;;;;;;;39.25;18.55;;;;;;;;;;4939633;29;20609;-63
2022/03/24 00:06:31;;;;;;;33.45;18.40;;;;;;;;;;4939590;29;20173;-63
2022/03/24 00:08:57;;;;;;;31.27;17.05;;;;;;;;;;4941765;29;20169;-63
2022/03/24 00:11:23;;;;;;;32.53;17.40;;;;;;;;;;4941606;29;20176;-63
2022/03/24 00:13:50;;;;;;;34.72;17.38;;;;;;;;;;4941818;29;20688;-63
2022/03/24 00:16:17;;;;;;;34.90;17.05;;;;;;;;;;4942012;29;20256;-63
2022/03/24 00:18:43;;;;;;;35.90;16.73;;;;;;;;;;4942117;29;20184;-63
2022/03/24 00:21:09;;;;;;;32.92;17.02;;;;;;;;;;4941216;29;20165;-63
2022/03/24 00:23:35;;;;;;;33.60;17.67;;;;;;;;;;4941621;29;20516;-63
2022/03/24 00:26:02;;;;;;;33.67;17.85;;;;;;;;;;4941694;29;20243;-63
2022/03/24 00:28:28;;;;;;;36.20;18.35;;;;;;;;;;4941795;29;20259;-63
2022/03/24 00:30:54;;;;;;;35.22;17.58;;;;;;;;;;4941380;29;20276;-63
2022/03/24 00:33:19;;;;;;;35.90;18.42;;;;;;;;;;4941611;29;20259;-63
2022/03/24 00:35:45;;;;;;;34.28;17.42;;;;;;;;;;4940869;29;20203;-63
2022/03/24 00:38:11;;;;;;;36.50;18.30;;;;;;;;;;4942421;29;20656;-62
2022/03/24 00:40:37;;;;;;;31.80;17.85;;;;;;;;;;4941590;29;20173;-62
2022/03/24 00:43:05;;;;;;;36.15;18.13;;;;;;;;;;4940922;29;20197;-62
2022/03/24 00:45:30;;;;;;;37.95;18.35;;;;;;;;;;4941256;29;20571;-62
2022/03/24 00:47:57;;;;;;;36.08;17.50;;;;;;;;;;4941062;29;20173;-62
2022/03/24 00:50:23;;;;;;;33.38;17.15;;;;;;;;;;4941352;29;20172;-62
2022/03/24 00:52:49;;;;;;;38.35;18.92;;;;;;;;;;4941315;29;20196;-62
2022/03/24 00:55:16;;;;;;;30.45;16.85;;;;;;;;;;4941039;29;20302;-62
2022/03/24 00:57:44;;;;;;;34.38;17.65;;;;;;;;;;4941183;29;20351;-62
2022/03/24 01:00:18;;;;;;;34.70;18.77;;;;;;;;;;4941218;29;20172;-62
2022/03/24 01:02:45;;;;;;;35.10;18.10;;;;;;;;;;4940895;29;20162;-62
2022/03/24 01:05:15;;;;;;;32.58;18.27;;;;;;;;;;4940942;29;20290;-62
2022/03/24 01:07:42;;;;;;;35.78;18.15;;;;;;;;;;4941297;29;20200;-62
2022/03/24 01:10:08;;;;;;;35.83;17.50;;;;;;;;;;4940980;29;20204;-63
2022/03/24 01:12:34;;;;;;;35.17;17.90;;;;;;;;;;4940433;29;20623;-62
2022/03/24 01:15:00;;;;;;;38.60;18.55;;;;;;;;;;4940635;29;20189;-63
2022/03/24 01:17:26;;;;;;;35.03;17.98;;;;;;;;;;4940823;29;20216;-62
2022/03/24 01:19:53;;;;;;;38.95;18.00;;;;;;;;;;4940622;29;20185;-63
2022/03/24 01:22:19;;;;;;;40.33;18.67;;;;;;;;;;4941026;29;20255;-62
2022/03/24 01:24:45;;;;;;;34.63;18.05;;;;;;;;;;4940510;29;20181;-63
2022/03/24 01:27:14;;;;;;;34.80;17.38;;;;;;;;;;4940922;29;20614;-62
2022/03/24 01:29:40;;;;;;;35.20;17.90;;;;;;;;;;4940591;29;20165;-63
2022/03/24 01:32:07;;;;;;;39.53;18.77;;;;;;;;;;4940370;29;20560;-62
2022/03/24 01:34:33;;;;;;;36.15;18.73;;;;;;;;;;4940934;29;20740;-63
2022/03/24 01:36:59;;;;;;;37.40;19.77;;;;;;;;;;4940889;29;20169;-63
2022/03/24 01:39:25;;;;;;;32.22;17.13;;;;;;;;;;4941176;29;20252;-63
2022/03/24 01:41:51;;;;;;;33.13;16.90;;;;;;;;;;4940589;29;20170;-63
2022/03/24 01:44:18;;;;;;;35.88;18.60;;;;;;;;;;4940418;29;20173;-63
2022/03/24 01:46:54;;;;;;;34.85;17.63;;;;;;;;;;4940385;29;20187;-62
2022/03/24 01:49:20;;;;;;;33.78;17.55;;;;;;;;;;4940759;29;20247;-62
2022/03/24 01:51:46;;;;;;;37.20;18.08;;;;;;;;;;4938546;29;20205;-63
2022/03/24 01:54:12;;;;;;;34.65;17.73;;;;;;;;;;4936485;29;20251;-62
2022/03/24 01:56:40;;;;;;;36.78;17.70;;;;;;;;;;4937401;29;20235;-61
2022/03/24 01:59:07;;;;;;;34.22;17.48;;;;;;;;;;4937786;29;20169;-60
2022/03/24 02:01:35;;;;;;;35.90;17.58;;;;;;;;;;4937828;29;20622;-61
2022/03/24 02:04:03;;;;;;;35.03;18.13;;;;;;;;;;4937874;29;20181;-63
2022/03/24 02:06:29;;;;;;;38.10;18.90;;;;;;;;;;4937515;29;20176;-61
2022/03/24 02:08:57;;;;;;;33.83;17.92;;;;;;;;;;4937531;29;20169;-62
2022/03/24 02:11:23;;;;;;;31.90;17.75;;;;;;;;;;4937632;29;20181;-61
2022/03/24 02:13:49;;;;;;;33.38;17.33;;;;;;;;;;4937373;29;20565;-61
2022/03/24 02:16:15;;;;;;;39.88;19.80;;;;;;;;;;4937296;29;20999;-61
2022/03/24 02:18:41;;;;;;;34.97;17.75;;;;;;;;;;4937683;29;20181;-60
2022/03/24 02:21:08;;;;;;;37.33;19.02;;;;;;;;;;4937641;29;20188;-63
2022/03/24 02:23:34;;;;;;;38.13;18.13;;;;;;;;;;4937392;29;20196;-61
2022/03/24 02:26:01;;;;;;;35.10;18.45;;;;;;;;;;4937287;29;20609;-61
2022/03/24 02:28:27;;;;;;;38.78;18.30;;;;;;;;;;4937365;29;20173;-60
2022/03/24 02:30:54;;;;;;;35.90;18.52;;;;;;;;;;4937978;29;20200;-61
2022/03/24 02:33:21;;;;;;;38.20;19.10;;;;;;;;;;4937465;29;20172;-63
2022/03/24 02:35:48;;;;;;;37.10;18.00;;;;;;;;;;4937346;29;20696;-60
2022/03/24 02:38:14;;;;;;;34.63;18.67;;;;;;;;;;4936985;29;20256;-63
2022/03/24 02:40:40;;;;;;;36.45;17.88;;;;;;;;;;4936994;29;20252;-62
2022/03/24 02:43:06;;;;;;;32.17;17.77;;;;;;;;;;4936623;29;20248;-60
2022/03/24 02:45:32;;;;;;;35.72;18.08;;;;;;;;;;4937100;29;20173;-62
2022/03/24 02:47:58;;;;;;;38.35;19.70;;;;;;;;;;4936776;29;20181;-60
2022/03/24 02:50:24;;;;;;;35.72;17.65;;;;;;;;;;4936901;29;20173;-61
2022/03/24 02:52:50;;;;;;;39.97;18.95;;;;;;;;;;4936512;29;20500;-61
2022/03/24 02:55:16;;;;;;;40.00;18.98;;;;;;;;;;4936485;29;20208;-61
2022/03/24 02:57:42;;;;;;;35.60;19.42;;;;;;;;;;4937113;29;20237;-62
2022/03/24 03:00:08;;;;;;;44.13;19.40;;;;;;;;;;4936491;29;20605;-61
2022/03/24 03:02:35;;;;;;;37.00;18.63;;;;;;;;;;4936638;29;20187;-62
2022/03/24 03:05:01;;;;;;;39.97;18.80;;;;;;;;;;4936169;29;20173;-62
2022/03/24 03:07:28;;;;;;;41.28;20.63;;;;;;;;;;4936625;29;20176;-62
2022/03/24 03:09:54;;;;;;;42.15;18.98;;;;;;;;;;4936843;29;20367;-62
2022/03/24 03:12:20;;;;;;;38.90;19.52;;;;;;;;;;4936191;29;20631;-62
2022/03/24 03:14:46;;;;;;;38.38;19.98;;;;;;;;;;4936563;29;20184;-61
2022/03/24 03:17:37;;;;;;;38.25;19.85;;;;;;;;;;4940746;29;20219;-63
2022/03/24 03:20:04;;;;;;;39.17;20.15;;;;;;;;;;4936252;29;20753;-60
2022/03/24 03:22:31;;;;;;;41.40;20.70;;;;;;;;;;4936536;29;20256;-62
2022/03/24 03:24:57;;;;;;;43.92;19.95;;;;;;;;;;4936273;29;20624;-61
2022/03/24 03:27:23;;;;;;;38.72;20.08;;;;;;;;;;4936192;29;20223;-62
2022/03/24 03:29:48;;;;;;;38.50;19.35;;;;;;;;;;4936252;29;20251;-62
2022/03/24 03:32:14;;;;;;;39.88;19.77;;;;;;;;;;4936053;29;20173;-61
2022/03/24 03:34:41;;;;;;;40.72;19.73;;;;;;;;;;4936411;29;20192;-61
2022/03/24 03:37:07;;;;;;;38.25;19.13;;;;;;;;;;4936348;29;20176;-62
2022/03/24 03:39:34;;;;;;;37.95;19.83;;;;;;;;;;4936033;29;20205;-62
2022/03/24 03:42:00;;;;;;;39.40;19.90;;;;;;;;;;4935858;29;20701;-62
2022/03/24 03:44:27;;;;;;;39.70;19.88;;;;;;;;;;4936008;29;20196;-61
2022/03/24 03:46:53;;;;;;;37.40;19.00;;;;;;;;;;4936003;29;20180;-62
2022/03/24 03:49:21;;;;;;;42.58;20.25;;;;;;;;;;4935860;29;20184;-60
2022/03/24 03:51:47;;;;;;;39.15;20.40;;;;;;;;;;4936184;29;20228;-62
2022/03/24 03:54:14;;;;;;;40.20;19.25;;;;;;;;;;4935765;29;20177;-61
2022/03/24 03:56:40;;;;;;;40.97;20.17;;;;;;;;;;4936148;29;20207;-60
2022/03/24 03:59:07;;;;;;;37.17;19.10;;;;;;;;;;4936087;29;20610;-60
2022/03/24 04:01:33;;;;;;;40.95;21.08;;;;;;;;;;4936115;29;20169;-61
2022/03/24 04:03:59;;;;;;;40.88;20.35;;;;;;;;;;4935870;29;20169;-61
2022/03/24 04:06:25;;;;;;;43.05;20.45;;;;;;;;;;4935827;29;20168;-62
2022/03/24 04:08:51;;;;;;;41.70;20.73;;;;;;;;;;4936026;29;20169;-59
2022/03/24 04:11:17;;;;;;;44.45;21.48;;;;;;;;;;4935832;29;20478;-61
2022/03/24 04:13:43;;;;;;;41.63;20.25;;;;;;;;;;4935904;29;20169;-62
2022/03/24 04:16:14;;;;;;;41.42;19.95;;;;;;;;;;4939265;29;20194;-63
2022/03/24 04:18:43;;;;;;;42.17;20.00;;;;;;;;;;4950306;29;20236;-62
2022/03/24 04:21:10;;;;;;;39.28;19.95;;;;;;;;;;4939349;29;20256;-62
2022/03/24 04:23:36;;;;;;;41.83;20.92;;;;;;;;;;4939158;29;20169;-62
2022/03/24 04:26:03;;;;;;;37.03;19.35;;;;;;;;;;4939266;29;20188;-62
2022/03/24 04:28:29;;;;;;;38.03;18.80;;;;;;;;;;4939013;29;20236;-62
2022/03/24 04:30:55;;;;;;;43.92;20.02;;;;;;;;;;4939098;29;20173;-61
2022/03/24 04:33:21;;;;;;;43.35;20.50;;;;;;;;;;4938979;29;20610;-62
2022/03/24 04:35:47;;;;;;;38.60;19.95;;;;;;;;;;4939011;29;20197;-62
2022/03/24 04:38:14;;;;;;;37.55;19.20;;;;;;;;;;4938938;29;20200;-62
2022/03/24 04:40:40;;;;;;;44.97;20.60;;;;;;;;;;4938947;29;20613;-63
2022/03/24 04:43:06;;;;;;;38.15;19.05;;;;;;;;;;4938839;29;20582;-61
2022/03/24 04:45:35;;;;;;;36.83;18.02;;;;;;;;;;4938945;29;20165;-63
2022/03/24 04:48:01;;;;;;;36.22;19.48;;;;;;;;;;4938674;29;20179;-61
2022/03/24 04:50:29;;;;;;;38.85;20.15;;;;;;;;;;4939059;29;20195;-61
2022/03/24 04:52:55;;;;;;;42.17;21.70;;;;;;;;;;4938904;29;20188;-62
2022/03/24 04:55:21;;;;;;;46.72;19.63;;;;;;;;;;4938811;29;20201;-63
2022/03/24 04:57:47;;;;;;;41.90;20.33;;;;;;;;;;4938627;29;20232;-62
2022/03/24 05:00:17;;;;;;;42.30;20.23;;;;;;;;;;4939109;29;20252;-62
2022/03/24 05:02:43;;;;;;;38.92;19.65;;;;;;;;;;4938755;29;20622;-61
2022/03/24 05:05:10;;;;;;;41.33;19.83;;;;;;;;;;4938437;29;20255;-62
2022/03/24 05:07:36;;;;;;;39.83;18.80;;;;;;;;;;4938609;29;20255;-62
2022/03/24 05:10:02;;;;;;;41.17;19.85;;;;;;;;;;4938593;29;20204;-63
2022/03/24 05:12:28;;;;;;;39.53;19.63;;;;;;;;;;4938346;29;20188;-62
2022/03/24 05:14:54;;;;;;;39.45;19.05;;;;;;;;;;4938135;29;20205;-63
2022/03/24 05:17:20;;;;;;;36.03;18.55;;;;;;;;;;4938494;29;20601;-62
2022/03/24 05:19:48;;;;;;;35.33;19.00;;;;;;;;;;4938081;29;20617;-62
2022/03/24 05:22:14;;;;;;;37.20;18.98;;;;;;;;;;4938115;29;20602;-62
2022/03/24 05:24:41;;;;;;;39.70;19.02;;;;;;;;;;4938035;29;20191;-62
2022/03/24 05:27:07;;;;;;;43.00;20.95;;;;;;;;;;4938358;29;20223;-62
2022/03/24 05:29:33;;;;;;;40.13;19.77;;;;;;;;;;4937959;29;20601;-62
2022/03/24 05:31:59;;;;;;;42.53;20.73;;;;;;;;;;4938006;29;20613;-63
2022/03/24 05:34:25;;;;;;;35.25;18.92;;;;;;;;;;4937804;29;20200;-63
2022/03/24 05:36:51;;;;;;;34.20;18.05;;;;;;;;;;4938043;29;20165;-62
2022/03/24 05:39:17;;;;;;;43.15;19.27;;;;;;;;;;4938201;29;20200;-61
2022/03/24 05:41:43;;;;;;;39.72;19.05;;;;;;;;;;4937800;29;20169;-62
2022/03/24 05:44:09;;;;;;;34.25;17.98;;;;;;;;;;4937817;29;20176;-62
2022/03/24 05:46:53;;;;;;;39.20;18.73;;;;;;;;;;4937916;29;20312;-62
2022/03/24 05:49:19;;;;;;;42.15;21.60;;;;;;;;;;4937766;29;20590;-62
2022/03/24 05:51:45;;;;;;;46.10;20.48;;;;;;;;;;4937939;29;20168;-62
2022/03/24 05:54:13;;;;;;;39.38;20.45;;;;;;;;;;4937607;29;20208;-62
2022/03/24 05:56:39;;;;;;;37.03;19.50;;;;;;;;;;4937771;29;20632;-61
2022/03/24 05:59:05;;;;;;;41.67;19.50;;;;;;;;;;4937877;29;20161;-61
2022/03/24 06:01:31;;;;;;;39.42;19.95;;;;;;;;;;4937631;29;20169;-62
2022/03/24 06:03:59;;;;;;;36.88;19.02;;;;;;;;;;4937449;29;20240;-63
2022/03/24 06:06:28;;;;;;;46.00;20.08;;;;;;;;;;4937573;29;20606;-63
2022/03/24 06:08:56;;;;;;;43.33;21.17;;;;;;;;;;4937326;29;20215;-61
2022/03/24 06:11:23;;;;;;;45.03;22.23;;;;;;;;;;4937412;29;20272;-62
2022/03/24 06:13:49;;;;;;;44.53;21.58;;;;;;;;;;4937191;29;20501;-62
2022/03/24 06:16:15;;;;;;;41.10;21.40;;;;;;;;;;4937201;29;20260;-62
2022/03/24 06:18:41;;;;;;;42.83;22.13;;;;;;;;;;4937328;29;20184;-61
2022/03/24 06:21:07;;;;;;;47.08;23.02;;;;;;;;;;4937516;29;20299;-62
2022/03/24 06:23:33;;;;;;;42.08;22.17;;;;;;;;;;4937778;29;20173;-62
2022/03/24 06:25:59;;;;;;;41.65;22.02;;;;;;;;;;4937071;29;20180;-61
2022/03/24 06:28:25;;;;;;;40.95;22.67;;;;;;;;;;4937108;29;20172;-62
2022/03/24 06:30:51;;;;;;;43.47;22.45;;;;;;;;;;4936881;29;20173;-61
2022/03/24 06:33:17;;;;;;;41.28;21.80;;;;;;;;;;4936930;29;20579;-61
2022/03/24 06:35:44;;;;;;;40.70;21.92;;;;;;;;;;4937008;29;20645;-61
2022/03/24 06:38:11;;;;;;;41.13;22.35;;;;;;;;;;4937055;29;20165;-60
2022/03/24 06:40:38;;;;;;;44.00;22.77;;;;;;;;;;4936370;29;20192;-61
2022/03/24 06:43:04;;;;;;;47.25;23.23;;;;;;;;;;4937022;29;20173;-62
2022/03/24 06:45:30;;;;;;;45.95;22.58;;;;;;;;;;4936833;29;20192;-62
2022/03/24 06:47:56;;;;;;;41.20;22.90;;;;;;;;;;4936588;29;20165;-62
2022/03/24 06:50:22;;;;;;;41.35;22.23;;;;;;;;;;4936512;29;20173;-62
2022/03/24 06:52:48;;;;;;;43.58;22.73;;;;;;;;;;4936622;29;20257;-62
2022/03/24 06:55:14;;;;;;;42.42;22.15;;;;;;;;;;4936446;29;20665;-62
2022/03/24 06:57:41;;;;;;;40.40;22.02;;;;;;;;;;4936432;29;20169;-62
2022/03/24 07:00:07;;;;;;;46.50;23.02;;;;;;;;;;4936739;29;20192;-62
2022/03/24 07:02:33;;;;;;;45.08;23.48;;;;;;;;;;4935476;29;20169;-62
2022/03/24 07:05:00;;;;;;;43.80;22.95;;;;;;;;;;4936303;29;20169;-62
2022/03/24 07:07:27;;;;;;;49.42;24.08;;;;;;;;;;4936678;29;20205;-62
2022/03/24 07:09:53;;;;;;;41.70;23.48;;;;;;;;;;4936265;29;20169;-62
2022/03/24 07:12:22;;;;;;;45.15;23.23;;;;;;;;;;4936517;29;20175;-62
2022/03/24 07:14:48;;;;;;;46.47;22.40;;;;;;;;;;4936043;29;20544;-62
2022/03/24 07:17:15;;;;;;;42.63;22.35;;;;;;;;;;4936112;29;20171;-62
2022/03/24 07:19:41;;;;;;;41.70;22.35;;;;;;;;;;4936019;29;20629;-62
2022/03/24 07:22:08;;;;;;;42.20;22.58;;;;;;;;;;4936472;29;20516;-62
2022/03/24 07:24:34;;;;;;;40.30;22.13;;;;;;;;;;4936326;29;20192;-61
2022/03/24 07:27:00;;;;;;;41.22;23.10;;;;;;;;;;4936008;29;20173;-62
2022/03/24 07:29:26;;;;;;;37.72;22.33;;;;;;;;;;4936428;29;20175;-62
2022/03/24 07:31:52;;;;;;;40.90;21.95;;;;;;;;;;4936073;29;20613;-62
2022/03/24 07:34:18;;;;;;;37.45;22.60;;;;;;;;;;4936124;29;20181;-63
2022/03/24 07:36:44;;;;;;;47.58;24.67;;;;;;;;;;4936299;29;20173;-63
2022/03/24 07:39:11;;;;;;;41.53;23.00;;;;;;;;;;4936208;29;20184;-63
2022/03/24 07:41:37;;;;;;;38.80;22.00;;;;;;;;;;4936044;29;20628;-62
2022/03/24 07:44:03;;;;;;;41.50;23.05;;;;;;;;;;4936203;29;20235;-63
2022/03/24 07:46:29;;;;;;;40.95;22.95;;;;;;;;;;4936320;29;20418;-63
2022/03/24 07:48:55;;;;;;;39.53;21.77;;;;;;;;;;4936053;29;20179;-63
2022/03/24 07:51:21;;;;;;;38.85;21.20;;;;;;;;;;4936676;29;20188;-62
2022/03/24 07:53:50;;;;;;;39.20;21.52;;;;;;;;;;4939936;29;20260;-62
2022/03/24 07:56:16;;;;;;;40.38;20.95;;;;;;;;;;4939678;29;20231;-61
2022/03/24 07:58:42;;;;;;;42.58;20.60;;;;;;;;;;4939991;29;20180;-62
2022/03/24 08:01:08;;;;;;;37.30;21.13;;;;;;;;;;4941367;29;20173;-62
2022/03/24 08:03:34;;;;;;;38.40;21.02;;;;;;;;;;4939925;29;20185;-61
2022/03/24 08:06:02;;;;;;;38.88;21.00;;;;;;;;;;4939606;29;20504;-63
2022/03/24 08:08:28;;;;;;;32.75;19.27;;;;;;;;;;4939699;29;20189;-62
2022/03/24 08:10:54;;;;;;;37.17;20.95;;;;;;;;;;4939744;29;20172;-62
2022/03/24 08:13:21;;;;;;;35.22;20.33;;;;;;;;;;4939839;29;20173;-62
2022/03/24 08:15:47;;;;;;;34.83;19.88;;;;;;;;;;4939473;29;20193;-61
2022/03/24 08:18:14;;;;;;;35.78;20.40;;;;;;;;;;4939643;29;20213;-63
2022/03/24 08:20:41;;;;;;;36.33;20.20;;;;;;;;;;4939480;29;20589;-62
2022/03/24 08:23:10;;;;;;;34.17;20.08;;;;;;;;;;4939634;29;20182;-62
2022/03/24 08:25:37;;;;;;;33.28;19.73;;;;;;;;;;4939549;29;20212;-62
2022/03/24 08:28:03;;;;;;;35.28;19.88;;;;;;;;;;4939489;29;20223;-63
2022/03/24 08:30:29;;;;;;;36.35;20.90;;;;;;;;;;4939210;29;20236;-63
2022/03/24 08:32:55;;;;;;;38.45;21.67;;;;;;;;;;4939182;29;20173;-60
2022/03/24 08:35:21;;;;;;;35.33;20.85;;;;;;;;;;4939008;29;20197;-62
2022/03/24 08:37:47;;;;;;;40.35;20.80;;;;;;;;;;4939079;29;20165;-62
2022/03/24 08:40:13;;;;;;;38.13;21.23;;;;;;;;;;4938893;29;20252;-62
2022/03/24 08:42:40;;;;;;;36.85;20.63;;;;;;;;;;4938771;29;20178;-62
2022/03/24 08:45:07;;;;;;;34.90;19.52;;;;;;;;;;4938832;29;20180;-62
2022/03/24 08:47:33;;;;;;;33.28;19.05;;;;;;;;;;4939147;29;20288;-61
2022/03/24 08:50:00;;;;;;;32.97;18.88;;;;;;;;;;4939223;29;20770;-62
2022/03/24 08:52:27;;;;;;;35.30;19.48;;;;;;;;;;4938752;29;20165;-62
2022/03/24 08:54:53;;;;;;;36.60;19.52;;;;;;;;;;4939167;29;20233;-61
2022/03/24 08:57:25;;;;;;;37.92;20.42;;;;;;;;;;4939897;29;20235;-61
2022/03/24 08:59:51;;;;;;;32.10;18.80;;;;;;;;;;4938850;29;20176;-62
2022/03/24 09:02:17;;;;;;;34.17;19.58;;;;;;;;;;4938522;29;20173;-63
2022/03/24 09:04:43;;;;;;;33.20;19.45;;;;;;;;;;4937836;29;20177;-61
2022/03/24 09:07:10;;;;;;;35.88;19.63;;;;;;;;;;4938641;29;20490;-62
2022/03/24 09:09:35;;;;;;;35.45;19.88;;;;;;;;;;4938642;29;20213;-63
2022/03/24 09:12:01;;;;;;;37.85;21.23;;;;;;;;;;4938413;29;20168;-64
2022/03/24 09:14:28;;;;;;;35.20;20.60;;;;;;;;;;4938373;29;20205;-61
2022/03/24 09:16:54;;;;;;;35.92;21.27;;;;;;;;;;4938156;29;20161;-63
2022/03/24 09:19:20;;;;;;;37.10;20.77;;;;;;;;;;4938223;29;20181;-63
2022/03/24 09:21:45;;;;;;;38.10;20.33;;;;;;;;;;4938166;29;20566;-62
2022/03/24 09:24:12;;;;;;;37.10;21.88;;;;;;;;;;4938174;29;20203;-63
2022/03/24 09:26:38;;;;;;;35.83;20.67;;;;;;;;;;4938132;29;20613;-63
2022/03/24 09:29:04;;;;;;;36.80;21.95;;;;;;;;;;4938201;29;20165;-62
2022/03/24 09:31:30;;;;;;;39.58;22.95;;;;;;;;;;4938313;29;20168;-63
2022/03/24 09:33:56;;;;;;;39.63;23.25;;;;;;;;;;4937933;29;20165;-62
2022/03/24 09:36:22;;;;;;;35.10;22.35;;;;;;;;;;4937823;29;20434;-63
2022/03/24 09:38:48;;;;;;;40.50;22.27;;;;;;;;;;4937807;29;20240;-63
2022/03/24 09:41:14;;;;;;;36.05;22.58;;;;;;;;;;4938119;29;20239;-63
2022/03/24 09:43:41;;;;;;;37.80;22.25;;;;;;;;;;4938105;29;20224;-63
2022/03/24 09:46:07;;;;;;;38.88;21.63;;;;;;;;;;4937369;29;20597;-63
2022/03/24 09:48:33;;;;;;;39.42;23.13;;;;;;;;;;4937800;29;20228;-62
2022/03/24 09:50:58;;;;;;;35.67;21.48;;;;;;;;;;4937645;29;20173;-63
2022/03/24 09:53:24;;;;;;;40.33;22.70;;;;;;;;;;4937591;29;20200;-62
2022/03/24 09:55:51;;;;;;;36.88;21.67;;;;;;;;;;4937526;29;20199;-63
2022/03/24 09:58:17;;;;;;;36.03;21.80;;;;;;;;;;4937386;29;20177;-62
2022/03/24 10:00:43;;;;;;;35.88;21.33;;;;;;;;;;4937590;29;20172;-62
2022/03/24 10:03:14;;;;;;;39.17;21.13;;;;;;;;;;4938703;29;20176;-63
2022/03/24 10:05:59;;;;;;;37.08;21.15;;;;;;;;;;4937620;29;20195;-63
2022/03/24 10:08:26;;;;;;;36.92;21.35;;;;;;;;;;4937591;29;20224;-63
2022/03/24 10:11:05;;;;;;;40.08;22.85;;;;;;;;;;4937292;29;20224;-63
2022/03/24 10:13:41;;;;;;;36.00;21.83;;;;;;;;;;4937162;29;20428;-63
2022/03/24 10:16:07;;;;;;;37.55;22.42;;;;;;;;;;4936429;29;20879;-63
2022/03/24 10:18:33;;;;;;;38.05;21.80;;;;;;;;;;4936989;29;20252;-62
2022/03/24 10:21:07;;;;;;;41.08;23.55;;;;;;;;;;4937211;29;20181;-63
2022/03/24 10:23:33;;;;;;;37.47;22.58;;;;;;;;;;4937221;29;20172;-63
2022/03/24 10:26:04;;;;;;;37.05;22.35;;;;;;;;;;4937034;29;20173;-63
2022/03/24 10:28:30;;;;;;;40.03;22.30;;;;;;;;;;4937216;29;20172;-63
2022/03/24 10:30:59;;;;;;;39.63;23.48;;;;;;;;;;4937054;29;20622;-63
2022/03/24 10:33:32;;;;;;;37.00;22.52;;;;;;;;;;4936917;29;20239;-62
2022/03/24 10:36:09;;;;;;;37.50;22.50;;;;;;;;;;4937093;29;20204;-63
2022/03/24 10:38:36;;;;;;;39.08;23.45;;;;;;;;;;4937222;29;20200;-63
2022/03/24 10:41:31;;;;;;;41.95;23.20;;;;;;;;;;4935805;29;20173;-62
2022/03/24 10:43:59;;;;;;;39.30;22.85;;;;;;;;;;4924199;29;20184;-63
2022/03/24 10:46:29;;;;;;;36.47;22.50;;;;;;;;;;4936645;29;20725;-63
2022/03/24 10:48:55;;;;;;;38.78;22.20;;;;;;;;;;4936345;29;20203;-63
2022/03/24 10:51:31;;;;;;;38.22;22.95;;;;;;;;;;4937019;29;20251;-63
2022/03/24 10:54:15;;;;;;;36.03;22.45;;;;;;;;;;4936390;29;20173;-62
2022/03/24 10:56:53;;;;;;;38.47;23.63;;;;;;;;;;4936549;29;20177;-62
2022/03/24 10:59:19;;;;;;;42.85;24.85;;;;;;;;;;4936646;29;20449;-61
2022/03/24 11:01:45;;;;;;;43.20;23.83;;;;;;;;;;4936752;29;20259;-63
2022/03/24 11:04:11;;;;;;;40.40;24.10;;;;;;;;;;4936459;29;20575;-62
2022/03/24 11:06:48;;;;;;;43.83;25.48;;;;;;;;;;4936268;29;20227;-62
2022/03/24 11:09:20;;;;;;;43.67;25.60;;;;;;;;;;4936332;29;20161;-62
2022/03/24 11:11:46;;;;;;;40.33;25.25;;;;;;;;;;4936281;29;20279;-63
2022/03/24 11:14:12;;;;;;;38.88;25.45;;;;;;;;;;4936331;29;20172;-62
2022/03/24 11:16:38;;;;;;;44.15;26.30;;;;;;;;;;4936377;29;20503;-62
2022/03/24 11:19:13;;;;;;;41.75;25.52;;;;;;;;;;4936396;29;20184;-61
2022/03/24 11:21:39;;;;;;;45.35;29.05;;;;;;;;;;4935818;29;20401;-62
2022/03/24 11:24:05;;;;;;;43.53;26.52;;;;;;;;;;4936488;29;20168;-62
2022/03/24 11:26:31;;;;;;;40.55;25.55;;;;;;;;;;4936047;29;20196;-63
2022/03/24 11:28:58;;;;;;;40.67;25.33;;;;;;;;;;4935207;29;20201;-63
2022/03/24 11:31:28;;;;;;;41.42;24.85;;;;;;;;;;4936163;29;20215;-63
2022/03/24 11:33:54;;;;;;;47.75;27.55;;;;;;;;;;4936290;29;20223;-62
2022/03/24 11:36:21;;;;;;;42.40;26.02;;;;;;;;;;4936303;29;20192;-63
2022/03/24 11:38:48;;;;;;;39.30;25.23;;;;;;;;;;4936230;29;20272;-63
2022/03/24 11:41:21;;;;;;;42.30;26.25;;;;;;;;;;4936483;29;20169;-63
2022/03/24 11:43:49;;;;;;;41.10;25.70;;;;;;;;;;4936186;29;20176;-63
2022/03/24 11:46:19;;;;;;;42.60;24.90;;;;;;;;;;4936535;29;20239;-63
2022/03/24 11:48:45;;;;;;;44.28;26.25;;;;;;;;;;4936092;29;20176;-63
2022/03/24 11:51:20;;;;;;;39.97;26.50;;;;;;;;;;4936420;29;20489;-62
2022/03/24 11:53:59;;;;;;;39.20;24.20;;;;;;;;;;4936352;29;20214;-62
2022/03/24 11:56:25;;;;;;;42.83;25.38;;;;;;;;;;4936301;29;20537;-62
2022/03/24 11:58:54;;;;;;;40.30;25.45;;;;;;;;;;4936608;29;20161;-63
2022/03/24 12:01:20;;;;;;;42.17;25.60;;;;;;;;;;4938011;29;20239;-63
2022/03/24 12:03:50;;;;;;;37.30;25.30;;;;;;;;;;4941432;29;20225;-63
2022/03/24 12:06:17;;;;;;;41.45;25.63;;;;;;;;;;4937031;29;20185;-64
2022/03/24 12:09:00;;;;;;;44.60;26.25;;;;;;;;;;4935922;28;20180;-62
2022/03/24 12:11:32;;;;;;;40.17;25.70;;;;;;;;;;4935139;29;20168;-63
2022/03/24 12:13:58;;;;;;;43.28;25.85;;;;;;;;;;4936366;29;20196;-65
2022/03/24 12:16:25;;;;;;;41.88;26.48;;;;;;;;;;4936215;29;20189;-64
2022/03/24 12:18:52;;;;;;;43.65;27.02;;;;;;;;;;4936055;29;20181;-63
2022/03/24 12:21:25;;;;;;;41.88;25.83;;;;;;;;;;4936343;29;20177;-64
2022/03/24 12:24:03;;;;;;;39.35;25.58;;;;;;;;;;4936002;29;20574;-63
2022/03/24 12:26:29;;;;;;;46.05;27.08;;;;;;;;;;4936146;29;20184;-64
2022/03/24 12:29:13;;;;;;;42.03;25.63;;;;;;;;;;4935908;29;20256;-62
2022/03/24 12:31:57;;;;;;;42.80;25.85;;;;;;;;;;4935815;29;20240;-63
2022/03/24 12:34:30;;;;;;;42.25;25.40;;;;;;;;;;4935632;29;20169;-63
2022/03/24 12:36:56;;;;;;;43.92;26.38;;;;;;;;;;4935897;29;20177;-62
2022/03/24 12:39:31;;;;;;;41.75;25.50;;;;;;;;;;4938237;29;20184;-63
2022/03/24 12:42:06;;;;;;;40.67;24.42;;;;;;;;;;4942766;29;20168;-64
2022/03/24 12:44:48;;;;;;;40.92;26.27;;;;;;;;;;4944958;29;20319;-63
2022/03/24 12:47:30;;;;;;;39.90;25.17;;;;;;;;;;4944787;29;20177;-63
2022/03/24 12:49:57;;;;;;;41.83;25.23;;;;;;;;;;4944260;29;20553;-63
2022/03/24 12:52:27;;;;;;;39.67;24.88;;;;;;;;;;4948605;29;20172;-63
2022/03/24 12:54:55;;;;;;;43.10;25.08;;;;;;;;;;4949654;29;20196;-62
2022/03/24 12:57:29;;;;;;;43.75;27.35;;;;;;;;;;4949850;29;20180;-62
2022/03/24 12:59:55;;;;;;;44.20;26.42;;;;;;;;;;4951030;29;20188;-61
2022/03/24 13:02:21;;;;;;;40.75;25.23;;;;;;;;;;4957571;29;20150;-62
2022/03/24 13:04:48;;;;;;;45.83;26.85;;;;;;;;;;4957600;29;20180;-62
2022/03/24 13:07:18;;;;;;;48.25;27.40;;;;;;;;;;4958596;29;20180;-62
2022/03/24 13:09:44;;;;;;;45.80;26.27;;;;;;;;;;4957981;29;20145;-62
2022/03/24 13:12:12;;;;;;;46.00;27.45;;;;;;;;;;4953836;29;20195;-62
2022/03/24 13:14:47;;;;;;;42.03;26.25;;;;;;;;;;4938725;29;20215;-62
2022/03/24 13:17:13;;;;;;;47.67;26.25;;;;;;;;;;4938735;29;20629;-62
2022/03/24 13:19:41;;;;;;;43.30;26.35;;;;;;;;;;4938419;29;20184;-61
2022/03/24 13:22:10;;;;;;;42.35;26.00;;;;;;;;;;4938497;29;20236;-60
2022/03/24 13:24:37;;;;;;;44.92;27.33;;;;;;;;;;4938672;29;20188;-62
2022/03/24 13:27:04;;;;;;;43.70;26.92;;;;;;;;;;4938731;29;20183;-61
2022/03/24 13:29:37;;;;;;;42.03;26.83;;;;;;;;;;4938502;29;20180;-60
2022/03/24 13:32:10;;;;;;;45.25;27.42;;;;;;;;;;4938691;29;20499;-62
2022/03/24 13:34:36;;;;;;;50.78;28.65;;;;;;;;;;4938457;29;20243;-61
2022/03/24 13:37:12;;;;;;;49.22;31.08;;;;;;;;;;4938276;29;20161;-62
2022/03/24 13:39:38;;;;;;;49.50;30.90;;;;;;;;;;4938096;29;20161;-61
2022/03/24 13:42:08;;;;;;;45.45;29.92;;;;;;;;;;4938523;29;20220;-62
2022/03/24 13:44:35;;;;;;;48.75;31.30;;;;;;;;;;4938145;29;20169;-61
2022/03/24 13:47:01;;;;;;;41.83;28.35;;;;;;;;;;4938303;29;20187;-61
2022/03/24 13:49:27;;;;;;;45.58;26.95;;;;;;;;;;4937677;29;20165;-61
2022/03/24 13:51:53;;;;;;;42.13;27.38;;;;;;;;;;4937955;29;20273;-62
2022/03/24 13:54:20;;;;;;;42.47;26.65;;;;;;;;;;4937916;29;20177;-62
2022/03/24 13:56:45;;;;;;;46.20;26.70;;;;;;;;;;4938132;29;20165;-61
2022/03/24 13:59:11;;;;;;;41.15;25.10;;;;;;;;;;4938024;29;20713;-60
2022/03/24 14:01:37;;;;;;;43.28;27.40;;;;;;;;;;4937819;29;20644;-62
2022/03/24 14:04:16;;;;;;;45.03;26.77;;;;;;;;;;4937729;29;20173;-61
2022/03/24 14:06:42;;;;;;;45.75;26.65;;;;;;;;;;4936900;29;20165;-62
2022/03/24 14:09:21;;;;;;;43.60;26.48;;;;;;;;;;4937632;29;20641;-62
2022/03/24 14:11:47;;;;;;;43.10;25.45;;;;;;;;;;4937706;29;20161;-61
2022/03/24 14:14:16;;;;;;;43.78;25.33;;;;;;;;;;4937494;29;20557;-62
2022/03/24 14:16:43;;;;;;;42.78;26.05;;;;;;;;;;4937736;29;20205;-62
2022/03/24 14:19:09;;;;;;;42.38;25.90;;;;;;;;;;4937539;29;20184;-62